• Join FlightAware (Why Join?)
  • Login
  • US Flag 
06:49PM EDT


 

Airport Tracker/Info


-or-


 

Live Flight TrackerFlight Track Log ✈ AAL832 ✈ 28-Jun-2013 ✈ KORD - KMIA

Flight Track Log - Related Links

Times and Time Zones

All times are in EDT time to prevent confusion due to time zone crossing. See the AAL832 flight status page for this flight to view local times or setup timezone preferences in your user account.

Time Position Orientation Groundspeed Altitude Reporting Facility
EDT Latitude Longitude Course Direction KTS MPH feet Rate Location/Type
05:43PM 41.9720 -87.8850 90° East 26 30  Level FlightAware
05:44PM 41.9720 -87.8830 90° East 26 30 240 Level FlightAware
05:44PM 41.9720 -87.8800 90° East 26 30 240 Level FlightAware
05:47PM 41.7192 -87.7474 155° Southeast  Level FlightAware Approximate
05:48PM 41.6199 -87.6853 155° Southeast  Level FlightAware Approximate
05:49PM 41.5199 -87.6252 156° South  Level FlightAware Approximate
05:50PM 41.4192 -87.5679 159° South  Level FlightAware Approximate
05:51PM 41.3113 -87.5445 169° South  Level FlightAware Approximate
05:51PM 41.9600 -87.8920 222° Southwest 155 178  Level FlightAware
05:52PM 41.9410 -87.9050 207° Southwest 172 198 2,200 3,000 Climbing FlightAware
05:52PM 41.9160 -87.9020 175° South 211 243 2,800 1,620 Climbing FlightAware
05:52PM 41.9040 -87.9000 173° South 223 257 3,300 1,500 Climbing FlightAware
05:53PM 41.8690 -87.9000 180° South 266 306 3,900 1,980 Climbing FlightAware
05:53PM 41.8330 -87.9010 181° South 275 316 5,300 3,060 Climbing FlightAware
05:54PM 41.7990 -87.9030 183° South 280 322 6,700 2,880 Climbing FlightAware
05:54PM 41.7610 -87.9060 183° South 294 338 7,900 2,760 Climbing FlightAware
05:55PM 41.7140 -87.8970 172° South 305 351 9,700 2,700 Climbing FlightAware
05:55PM 41.6610 -87.8400 141° Southeast 325 374 11,700 2,760 Climbing FlightAware
05:56PM 41.6070 -87.7790 140° Southeast 331 381 14,000 2,760 Climbing FlightAware
05:57PM 41.5630 -87.7290 140° Southeast 336 387 15,600 2,040 Climbing FlightAware
05:58PM 41.5050 -87.6670 141° Southeast 361 415 16,900 1,860 Climbing FlightAware
05:58PM 41.4530 -87.6060 139° Southeast 379 436 18,300 1,980 Climbing FlightAware
05:59PM 41.4180 -87.5760 147° Southeast 385 443 19,100 1,860 Climbing FlightAware
05:59PM 41.3830 -87.5620 163° South 390 449 19,700 1,800 Climbing FlightAware
06:00PM 41.3250 -87.5520 173° South 397 457 20,700 1,920 Climbing FlightAware
06:00PM 41.2410 -87.5390 173° South 406 467 22,200 1,620 Climbing FlightAware
06:01PM 41.1540 -87.5230 172° South 422 486 23,200 1,380 Climbing FlightAware
06:02PM 41.0760 -87.5010 168° South 434 499 24,200 1,740 Climbing FlightAware
06:03PM 40.9880 -87.4750 167° South 433 498 25,700 1,800 Climbing FlightAware
06:03PM 40.9090 -87.4540 169° South 435 501 26,800 900 Climbing FlightAware
06:04PM 40.8210 -87.4320 169° South 449 517 27,000 180 Climbing FlightAware
06:05PM 40.7410 -87.4110 169° South 451 519 27,100 420 Climbing FlightAware
06:05PM 40.6540 -87.3870 168° South 469 540 27,600 840 Climbing FlightAware
06:06PM 40.5530 -87.3600 169° South 482 555 28,400 1,020 Climbing FlightAware
06:07PM 40.4640 -87.3360 168° South 490 564 29,100 1,020 Climbing FlightAware
06:07PM 40.3830 -87.3020 162° South 500 575 29,800 960 Climbing FlightAware
06:08PM 40.2780 -87.2520 160° South 512 589 30,500 1,020 Climbing FlightAware
06:09PM 40.1800 -87.2060 160° South 514 592 31,400 1,200 Climbing FlightAware
06:09PM 40.1000 -87.1680 160° South 516 594 32,100 1,140 Climbing FlightAware
06:10PM 39.9930 -87.1140 159° South 516 594 33,000 720 Climbing FlightAware
06:11PM 39.8670 -87.0470 158° South 519 597 33,500 960 Climbing FlightAware
06:12PM 39.7570 -86.9890 158° South 521 600 34,700 1,380 Climbing FlightAware
06:13PM 39.6680 -86.9430 158° South 513 590 35,500 1,200 Climbing FlightAware
06:13PM 39.5750 -86.8740 150° Southeast 518 596 36,400 900 Climbing FlightAware
06:14PM 39.4980 -86.8060 146° Southeast 519 597 36,800 300 Climbing FlightAware
06:15PM 39.3703 -86.6978 146° Southeast 520 598 37,000 60 Climbing Indianapolis Center
06:16PM 39.2503 -86.5936 146° Southeast 524 603 37,000  Level Indianapolis Center
06:17PM 39.1297 -86.4919 147° Southeast 522 601 37,000  Level Indianapolis Center
06:18PM 39.0097 -86.3908 147° Southeast 521 600 37,000  Level Indianapolis Center
06:24PM 38.2820 -85.7830 147° Southeast 507 583 37,000  Level FlightAware
06:28PM 37.8034 -85.3912 147° Southeast 37,000  Level FlightAware ADS-B
06:29PM 37.7417 -85.3410 147° Southeast 493 567 37,000  Level FlightAware ADS-B
06:29PM 37.7265 -85.3287 147° Southeast 494 568 37,000  Level FlightAware ADS-B
06:29PM 37.6684 -85.2816 147° Southeast 493 567 37,000  Level FlightAware ADS-B
06:30PM 37.6106 -85.2349 147° Southeast 493 567 37,000  Level FlightAware ADS-B
06:30PM 37.5524 -85.1879 147° Southeast 493 567 37,000  Level FlightAware ADS-B
06:31PM 37.4938 -85.1406 147° Southeast 492 566 37,000  Level FlightAware ADS-B
06:32PM 37.4357 -85.0938 147° Southeast 491 565 37,000  Level FlightAware ADS-B
06:32PM 37.3769 -85.0468 148° Southeast 490 564 37,000  Level FlightAware ADS-B
06:33PM 37.3178 -84.9996 148° Southeast 487 560 37,000  Level FlightAware ADS-B
06:33PM 37.2604 -84.9538 148° Southeast 487 560 37,000  Level FlightAware ADS-B
06:34PM 37.2030 -84.9079 148° Southeast 485 558 37,000  Level FlightAware ADS-B
06:34PM 37.1437 -84.8607 148° Southeast 485 558 37,000  Level FlightAware ADS-B
06:35PM 37.0844 -84.8137 148° Southeast 484 557 37,000  Level FlightAware ADS-B
06:35PM 37.0269 -84.7683 148° Southeast 484 557 37,000  Level FlightAware ADS-B
06:36PM 36.9668 -84.7207 148° Southeast 483 556 37,000  Level FlightAware ADS-B
06:36PM 36.9085 -84.6748 148° Southeast 484 557 37,000  Level FlightAware ADS-B
06:37PM 36.8515 -84.6297 148° Southeast 483 556 37,000  Level FlightAware ADS-B
06:37PM 36.7920 -84.5829 148° Southeast 484 557 37,000  Level FlightAware ADS-B
06:38PM 36.7329 -84.5365 148° Southeast 484 557 37,000  Level FlightAware ADS-B
06:38PM 36.6758 -84.4917 148° Southeast 485 558 37,000  Level FlightAware ADS-B
06:39PM 36.6175 -84.4460 148° Southeast 484 557 37,000  Level FlightAware ADS-B
06:39PM 36.5563 -84.3981 148° Southeast 486 559 37,000  Level FlightAware ADS-B
06:40PM 36.4986 -84.3531 148° Southeast 487 560 37,000  Level FlightAware ADS-B
06:40PM 36.4414 -84.3086 148° Southeast 487 560 37,000  Level FlightAware ADS-B
06:41PM 36.3833 -84.2635 148° Southeast 489 563 37,000  Level FlightAware ADS-B
06:41PM 36.3251 -84.2184 148° Southeast 491 565 37,000  Level FlightAware ADS-B
06:42PM 36.2661 -84.1727 148° Southeast 492 566 37,000  Level FlightAware ADS-B
06:42PM 36.2067 -84.1268 148° Southeast 492 566 37,000  Level FlightAware ADS-B
06:43PM 36.1468 -84.0808 148° Southeast 492 566 37,000  Level FlightAware ADS-B
06:43PM 36.1140 -84.0578 150° Southeast 488 562 37,000  Level FlightAware ADS-B
06:44PM 36.0529 -84.0182 152° Southeast 486 559 37,000  Level FlightAware ADS-B
06:44PM 35.9929 -83.9794 152° Southeast 484 557 37,000  Level FlightAware ADS-B
06:45PM 35.9268 -83.9367 152° Southeast 484 557 37,000  Level FlightAware ADS-B
06:45PM 35.8669 -83.8982 152° Southeast 483 556 37,000  Level FlightAware ADS-B
06:46PM 35.8063 -83.8591 152° Southeast 483 556 37,000  Level FlightAware ADS-B
06:46PM 35.7572 -83.8277 153° Southeast 483 556 37,000  Level FlightAware ADS-B
06:47PM 35.6961 -83.7915 154° Southeast 480 552 37,000  Level FlightAware ADS-B
06:47PM 35.6333 -83.7550 155° Southeast 480 552 37,000  Level FlightAware ADS-B
06:48PM 35.5710 -83.7229 157° South 475 547 37,000  Level FlightAware ADS-B
06:48PM 35.5084 -83.6954 160° South 472 543 37,000  Level FlightAware ADS-B
06:49PM 35.4452 -83.6686 161° South 470 541 37,000  Level FlightAware ADS-B
06:49PM 35.3979 -83.6439 157° South 475 547 37,000  Level FlightAware ADS-B
06:49PM 35.3681 -83.6242 152° Southeast 479 551 37,000  Level FlightAware ADS-B
06:49PM 35.3517 -83.6107 146° Southeast 482 555 37,000  Level FlightAware ADS-B
06:50PM 35.3270 -83.5878 143° Southeast 485 558 37,000  Level FlightAware ADS-B
06:50PM 35.3084 -83.5660 136° Southeast 488 562 37,000  Level FlightAware ADS-B
06:50PM 35.3008 -83.5555 132° Southeast 490 564 37,000  Level FlightAware ADS-B
06:50PM 35.2869 -83.5338 128° Southeast 492 566 37,000  Level FlightAware ADS-B
06:51PM 35.2485 -83.4697 126° Southeast 492 566 37,000  Level FlightAware ADS-B
06:51PM 35.2107 -83.3967 122° Southeast 496 571 37,000  Level FlightAware ADS-B
06:52PM 35.1747 -83.3247 121° Southeast 495 570 37,000  Level FlightAware ADS-B
06:52PM 35.1384 -83.2527 122° Southeast 493 567 37,000  Level FlightAware ADS-B
06:53PM 35.0972 -83.1708 122° Southeast 497 572 37,000  Level FlightAware ADS-B
06:53PM 35.0606 -83.0986 122° Southeast 502 578 37,000  Level FlightAware ADS-B
06:54PM 35.0232 -83.0257 122° Southeast 503 579 37,000  Level FlightAware ADS-B
06:54PM 34.9861 -82.9534 122° Southeast 503 579 37,000  Level FlightAware ADS-B
06:55PM 34.9487 -82.8793 122° Southeast 504 580 37,000  Level FlightAware ADS-B
06:55PM 34.9120 -82.8064 122° Southeast 504 580 37,000  Level FlightAware ADS-B
06:56PM 34.8714 -82.7259 122° Southeast 503 579 37,000  Level FlightAware ADS-B
06:56PM 34.8348 -82.6528 121° Southeast 499 574 37,000  Level FlightAware ADS-B
06:57PM 34.7983 -82.5806 122° Southeast 501 577 37,000  Level FlightAware ADS-B
06:57PM 34.7605 -82.5061 122° Southeast 502 578 37,000  Level FlightAware ADS-B
06:58PM 34.7232 -82.4397 124° Southeast 500 575 37,000  Level FlightAware ADS-B
06:58PM 34.6789 -82.3703 128° Southeast 501 577 37,000  Level FlightAware ADS-B
06:59PM 34.6208 -82.2862 130° Southeast 501 577 37,000  Level FlightAware ADS-B
07:00PM 34.5298 -82.1762 135° Southeast 500 575 37,000 180 Level FlightAware ADS-B
07:04PM 34.0710 -81.8440 149° Southeast 480 552 38,000 180 Climbing FlightAware
07:04PM 33.9880 -81.8080 160° South 479 551 38,000  Level FlightAware
07:05PM 33.8940 -81.7690 161° South 479 551 38,000  Level FlightAware
07:06PM 33.7990 -81.7320 162° South 482 555 38,000  Level FlightAware
07:07PM 33.7140 -81.6990 162° South 482 555 38,000  Level FlightAware
07:07PM 33.6300 -81.6660 162° South 477 549 38,000  Level FlightAware
07:08PM 33.5530 -81.6360 162° South 472 543 38,000  Level FlightAware
07:09PM 33.4540 -81.5980 162° South 472 543 38,000  Level FlightAware
07:09PM 33.3700 -81.5690 164° South 471 542 38,000  Level FlightAware
07:10PM 33.2390 -81.5270 165° South 471 542 38,000  Level FlightAware
07:11PM 33.1300 -81.4970 167° South 469 540 38,000  Level FlightAware
07:12PM 33.0420 -81.4760 169° South 470 541 38,000  Level FlightAware
07:13PM 32.9450 -81.4560 170° South 470 541 38,000  Level FlightAware
07:13PM 32.8610 -81.4400 171° South 475 547 38,000  Level FlightAware
07:14PM 32.7530 -81.4200 171° South 478 550 38,000  Level FlightAware
07:15PM 32.6390 -81.3960 170° South 478 550 38,000  Level FlightAware
07:16PM 32.5720 -81.3820 170° South 478 550 38,000  Level FlightAware
07:17PM 32.4830 -81.3640 170° South 478 550 38,000  Level FlightAware
07:17PM 32.4140 -81.3770 189° South 38,000  Level FlightAware
07:18PM 32.2280 -81.3530 174° South 493 567 38,000  Level FlightAware
07:19PM 32.1440 -81.3400 173° South 488 562 38,000  Level FlightAware
07:20PM 32.0020 -81.3180 173° South 486 559 38,000  Level FlightAware
07:21PM 31.9130 -81.3050 173° South 482 555 38,000  Level FlightAware
07:21PM 31.8140 -81.2890 172° South 479 551 38,000  Level FlightAware
07:22PM 31.7240 -81.2760 173° South 484 557 38,000  Level FlightAware
07:23PM 31.6060 -81.2580 173° South 487 560 38,000  Level FlightAware
07:24PM 31.5160 -81.2450 173° South 489 563 38,000  Level FlightAware
07:24PM 31.4200 -81.2300 172° South 487 560 38,000  Level FlightAware
07:25PM 31.3300 -81.2160 172° South 485 558 38,000  Level FlightAware
07:26PM 31.2260 -81.2010 173° South 483 556 38,000  Level FlightAware
07:27PM 31.1090 -81.1830 172° South 483 556 38,000  Level FlightAware
07:27PM 31.0410 -81.1710 171° South 483 556 38,000  Level FlightAware
07:28PM 30.9530 -81.1570 172° South 483 556 38,000  Level FlightAware
07:29PM 30.8850 -81.1460 172° South 483 556 38,000  Level FlightAware
07:30PM 30.7950 -81.1310 172° South 483 556 38,000  Level FlightAware
07:30PM 30.7250 -81.1200 172° South 483 556 38,000  Level FlightAware
07:31PM 30.5370 -81.0980 174° South 486 559 38,000  Level FlightAware
07:32PM 30.4610 -81.0870 173° South 486 559 38,000  Level FlightAware
07:32PM 30.3520 -81.0710 173° South 490 564 38,000  Level FlightAware
07:33PM 30.2570 -81.0570 173° South 491 565 38,000  Level FlightAware
07:34PM 30.1620 -81.0430 173° South 493 567 38,000  Level FlightAware
07:34PM 30.0610 -81.0290 173° South 494 568 38,000  Level FlightAware
07:35PM 29.9410 -81.0110 173° South 494 568 38,000  Level FlightAware
07:36PM 29.8270 -80.9940 173° South 38,000  Level FlightAware
07:37PM 29.6930 -80.9750 173° South 489 563 38,000  Level FlightAware
07:38PM 29.6230 -80.9650 173° South 489 563 38,000  Level FlightAware
07:39PM 29.4930 -80.9460 173° South 485 558 38,000  Level FlightAware
07:39PM 29.3940 -80.9110 163° South 467 537 38,000  Level FlightAware
07:40PM 29.3360 -80.8720 150° Southeast 474 545 38,000  Level FlightAware
07:41PM 29.1970 -80.7770 149° Southeast 473 544 38,000  Level FlightAware
07:42PM 29.1150 -80.7200 149° Southeast 469 540 38,000  Level FlightAware
07:43PM 29.0320 -80.6630 149° Southeast 469 540 38,000  Level FlightAware
07:43PM 28.9610 -80.6150 149° Southeast 473 544 38,000  Level FlightAware
07:44PM 28.8730 -80.5550 149° Southeast 474 545 38,000  Level FlightAware
07:45PM 28.8060 -80.5090 149° Southeast 475 547 38,000  Level FlightAware
07:45PM 28.7110 -80.4450 149° Southeast 482 555 38,000  Level FlightAware
07:46PM 28.6340 -80.3930 149° Southeast 473 544 38,000  Level FlightAware
07:47PM 28.5470 -80.3340 149° Southeast 471 542 38,000  Level FlightAware
07:47PM 28.4710 -80.2830 149° Southeast 471 542 38,000  Level FlightAware
07:48PM 28.3950 -80.2310 149° Southeast 471 542 38,000  Level FlightAware
07:49PM 28.3090 -80.1740 150° Southeast 470 541 38,000  Level FlightAware
07:50PM 28.2350 -80.1240 149° Southeast 467 537 38,000  Level FlightAware
07:50PM 28.1610 -80.0740 149° Southeast 466 536 38,000  Level FlightAware
07:51PM 28.0780 -80.0180 149° Southeast 469 540 38,000  Level FlightAware
07:52PM 28.0050 -79.9670 148° Southeast 465 535 38,000  Level FlightAware
07:52PM 27.9270 -79.8880 138° Southeast 457 526 38,000  Level FlightAware
07:53PM 27.8610 -79.8210 138° Southeast 460 529 38,000 -120 Level FlightAware
07:54PM 27.7800 -79.7630 148° Southeast 466 536 37,900 -1,020 Descending FlightAware
07:54PM 27.7020 -79.7190 153° Southeast 471 542 36,600 -2,520 Descending FlightAware
07:55PM 27.6250 -79.6740 153° Southeast 471 542 34,600 -3,120 Descending FlightAware
07:56PM 27.5360 -79.6230 153° Southeast 487 560 32,300 -3,000 Descending FlightAware
07:57PM 27.4450 -79.5710 153° Southeast 489 563 30,200 -2,760 Descending FlightAware
07:57PM 27.3720 -79.5290 153° Southeast 472 543 28,600 -2,280 Descending FlightAware
07:58PM 27.3110 -79.5050 161° South 455 524 27,700 -1,920 Descending FlightAware
07:58PM 27.2390 -79.5210 191° South 442 509 26,400 -2,160 Descending FlightAware
07:59PM 27.1400 -79.5710 204° Southwest 432 497 24,600 -2,100 Descending FlightAware
08:00PM 27.0800 -79.6010 204° Southwest 420 483 23,600 -2,220 Descending FlightAware
08:01PM 26.9800 -79.6520 204° Southwest 415 478 21,300 -2,400 Descending FlightAware
08:01PM 26.8970 -79.6930 204° Southwest 403 464 19,500 -2,160 Descending FlightAware
08:02PM 26.8230 -79.7300 204° Southwest 388 447 18,000 -2,100 Descending FlightAware
08:03PM 26.7700 -79.7570 204° Southwest 382 440 16,700 -2,340 Descending FlightAware
08:04PM 26.6940 -79.7950 204° Southwest 369 425 14,900 -2,220 Descending FlightAware
08:04PM 26.6240 -79.8290 203° Southwest 367 422 13,400 -1,200 Descending FlightAware
08:05PM 26.5460 -79.8690 205° Southwest 357 411 13,000 -300 Descending FlightAware
08:06PM 26.4780 -79.9020 203° Southwest 338 389 13,000 -180 Level FlightAware
08:07PM 26.4210 -79.9310 204° Southwest 334 384 12,800 -720 Descending FlightAware
08:07PM 26.3550 -79.9630 203° Southwest 338 389 12,000 -1,020 Descending FlightAware
08:08PM 26.2980 -79.9920 205° Southwest 337 388 11,400 -1,020 Descending FlightAware
08:09PM 26.2390 -80.0170 201° Southwest 321 369 10,700 -1,020 Descending FlightAware
08:09PM 26.1740 -80.0360 195° South 317 365 10,000 -540 Descending FlightAware
08:10PM 26.0960 -80.0580 194° South 299 344 9,900 -240 Descending FlightAware
08:10PM 26.0830 -80.0610 192° South 285 328 9,800 -300 Descending FlightAware
08:11PM 26.0430 -80.0730 195° South 284 327 9,700 -1,440 Descending FlightAware
08:11PM 26.0120 -80.0810 193° South 285 328 8,500 -1,920 Descending FlightAware
08:12PM 25.9680 -80.0960 197° South 271 312 8,000 -540 Descending FlightAware
08:12PM 25.9420 -80.1100 206° Southwest 250 288 8,000  Level FlightAware
08:13PM 25.9110 -80.1260 205° Southwest 231 266 8,000  Level FlightAware
08:13PM 25.8800 -80.1420 205° Southwest 231 266 8,000  Level FlightAware
08:14PM 25.8550 -80.1540 203° Southwest 230 265 8,000  Level FlightAware
08:14PM 25.8400 -80.1620 206° Southwest 230 265 8,000  Level FlightAware
08:14PM 25.8150 -80.1750 205° Southwest 231 266 8,000  Level FlightAware
08:15PM 25.7850 -80.1900 204° Southwest 231 266 8,000  Level FlightAware
08:15PM 25.7540 -80.2060 205° Southwest 233 268 8,000 -300 Level FlightAware
08:16PM 25.7400 -80.2150 210° Southwest 238 274 7,800 -1,200 Descending FlightAware
08:16PM 25.7320 -80.2240 225° Southwest 235 270 7,500 -1,200 Descending FlightAware
08:16PM 25.7240 -80.2400 241° Southwest 238 274 7,300 -1,080 Descending FlightAware
08:17PM 25.7130 -80.2680 246° West 240 276 6,800 -1,140 Descending FlightAware
08:17PM 25.7100 -80.3050 265° West 236 272 6,300 -960 Descending FlightAware
08:17PM 25.7090 -80.3220 266° West 233 268 6,100 -1,140 Descending FlightAware
08:18PM 25.7060 -80.3590 265° West 232 267 5,500 -1,080 Descending FlightAware
08:18PM 25.7040 -80.3880 266° West 232 267 5,100 -1,020 Descending FlightAware
08:19PM 25.7020 -80.4230 266° West 225 259 4,600 -1,020 Descending FlightAware
08:19PM 25.7100 -80.4550 286° West 211 243 4,100 -900 Descending FlightAware
08:19PM 25.7190 -80.4600 333° Northwest 207 238 4,000 -300 Descending FlightAware
08:20PM 25.7280 -80.4610 354° North 193 222 4,000 -1,140 Level FlightAware
08:21PM 25.7750 -80.4380 24° Northeast 195 224 2,600 -1,320 Descending FlightAware
08:21PM 25.7820 -80.4150 71° East 183 211 2,100 -1,320 Descending FlightAware
08:22PM 25.7830 -80.3750 88° East 160 184 1,100 -1,140 Descending FlightAware
08:22PM 25.7850 -80.3470 85° East 155 178 600 -720 Descending FlightAware
08:23PM 25.7860 -80.3300 86° East 155 178 400 -480 Descending FlightAware
08:24PM 25.7870 -80.2940 88° East 78 90 -540 Descending FlightAware
08:24PM 25.7870 -80.2880 90° East 27 31  Level FlightAware
08:24PM 25.7880 -80.2870 42° Northeast 34 39  Level FlightAware